sensor_id;sensor_type;location;lat;lon;timestamp;temperature;humidity
59041;DHT22;44825;53.200;6.448;2022-10-20T00:09:26;9.50;99.90
59041;DHT22;44825;53.200;6.448;2022-10-20T00:14:28;9.40;99.90
59041;DHT22;44825;53.200;6.448;2022-10-20T00:16:55;9.40;99.90
59041;DHT22;44825;53.200;6.448;2022-10-20T00:19:22;9.40;99.90
59041;DHT22;44825;53.200;6.448;2022-10-20T00:21:49;9.40;99.90
59041;DHT22;44825;53.200;6.448;2022-10-20T00:24:16;9.40;99.90
59041;DHT22;44825;53.200;6.448;2022-10-20T00:26:46;9.40;99.90
59041;DHT22;44825;53.200;6.448;2022-10-20T00:29:13;9.30;99.90
59041;DHT22;44825;53.200;6.448;2022-10-20T00:31:39;9.30;99.90
59041;DHT22;44825;53.200;6.448;2022-10-20T00:34:06;9.30;99.90
59041;DHT22;44825;53.200;6.448;2022-10-20T00:36:33;9.30;99.90
59041;DHT22;44825;53.200;6.448;2022-10-20T00:39:00;9.30;99.90
59041;DHT22;44825;53.200;6.448;2022-10-20T00:41:27;9.30;99.90
59041;DHT22;44825;53.200;6.448;2022-10-20T00:43:56;9.30;99.90
59041;DHT22;44825;53.200;6.448;2022-10-20T00:46:23;9.30;99.90
59041;DHT22;44825;53.200;6.448;2022-10-20T00:48:52;9.20;99.90
59041;DHT22;44825;53.200;6.448;2022-10-20T00:51:20;9.20;99.90
59041;DHT22;44825;53.200;6.448;2022-10-20T00:53:48;9.20;99.90
59041;DHT22;44825;53.200;6.448;2022-10-20T00:56:15;9.20;99.90
59041;DHT22;44825;53.200;6.448;2022-10-20T00:58:42;9.20;99.90
59041;DHT22;44825;53.200;6.448;2022-10-20T01:01:10;9.10;99.90
59041;DHT22;44825;53.200;6.448;2022-10-20T01:03:39;9.10;99.90
59041;DHT22;44825;53.200;6.448;2022-10-20T01:06:09;9.10;99.90
59041;DHT22;44825;53.200;6.448;2022-10-20T01:08:36;9.10;99.90
59041;DHT22;44825;53.200;6.448;2022-10-20T01:11:05;9.10;99.90
59041;DHT22;44825;53.200;6.448;2022-10-20T01:13:38;9.10;99.90
59041;DHT22;44825;53.200;6.448;2022-10-20T01:16:12;9.10;99.90
59041;DHT22;44825;53.200;6.448;2022-10-20T01:18:44;9.10;99.90
59041;DHT22;44825;53.200;6.448;2022-10-20T01:26:52;9.10;99.90
59041;DHT22;44825;53.200;6.448;2022-10-20T01:29:22;9.10;99.90
59041;DHT22;44825;53.200;6.448;2022-10-20T01:31:52;9.00;99.90
59041;DHT22;44825;53.200;6.448;2022-10-20T01:34:21;9.00;99.90
59041;DHT22;44825;53.200;6.448;2022-10-20T01:36:52;9.10;99.90
59041;DHT22;44825;53.200;6.448;2022-10-20T01:39:22;9.10;99.90
59041;DHT22;44825;53.200;6.448;2022-10-20T01:41:51;9.10;99.90
59041;DHT22;44825;53.200;6.448;2022-10-20T01:44:18;9.10;99.90
59041;DHT22;44825;53.200;6.448;2022-10-20T01:46:48;9.10;99.90
59041;DHT22;44825;53.200;6.448;2022-10-20T01:49:14;9.10;99.90
59041;DHT22;44825;53.200;6.448;2022-10-20T01:51:41;9.10;99.90
59041;DHT22;44825;53.200;6.448;2022-10-20T01:54:18;9.10;99.90
59041;DHT22;44825;53.200;6.448;2022-10-20T01:56:46;9.10;99.90
59041;DHT22;44825;53.200;6.448;2022-10-20T01:59:20;9.10;99.90
59041;DHT22;44825;53.200;6.448;2022-10-20T02:01:59;9.10;99.90
59041;DHT22;44825;53.200;6.448;2022-10-20T02:04:32;9.10;99.90
59041;DHT22;44825;53.200;6.448;2022-10-20T02:07:01;9.00;99.90
59041;DHT22;44825;53.200;6.448;2022-10-20T02:09:31;9.00;99.90
59041;DHT22;44825;53.200;6.448;2022-10-20T02:12:01;8.90;99.90
59041;DHT22;44825;53.200;6.448;2022-10-20T02:14:29;9.00;99.90
59041;DHT22;44825;53.200;6.448;2022-10-20T02:16:59;8.90;99.90
59041;DHT22;44825;53.200;6.448;2022-10-20T02:19:30;8.90;99.90
59041;DHT22;44825;53.200;6.448;2022-10-20T02:21:58;8.90;99.90
59041;DHT22;44825;53.200;6.448;2022-10-20T02:24:26;8.80;99.90
59041;DHT22;44825;53.200;6.448;2022-10-20T02:26:54;8.80;99.90
59041;DHT22;44825;53.200;6.448;2022-10-20T02:29:24;8.80;99.90
59041;DHT22;44825;53.200;6.448;2022-10-20T02:31:53;8.80;99.90
59041;DHT22;44825;53.200;6.448;2022-10-20T02:34:21;8.80;99.90
59041;DHT22;44825;53.200;6.448;2022-10-20T02:36:53;8.80;99.90
59041;DHT22;44825;53.200;6.448;2022-10-20T02:39:20;8.80;99.90
59041;DHT22;44825;53.200;6.448;2022-10-20T02:41:46;8.90;99.90
59041;DHT22;44825;53.200;6.448;2022-10-20T02:44:13;8.80;99.90
59041;DHT22;44825;53.200;6.448;2022-10-20T02:46:40;8.80;99.90
59041;DHT22;44825;53.200;6.448;2022-10-20T02:49:06;8.80;99.90
59041;DHT22;44825;53.200;6.448;2022-10-20T02:51:35;8.70;99.90
59041;DHT22;44825;53.200;6.448;2022-10-20T02:54:01;8.60;99.90
59041;DHT22;44825;53.200;6.448;2022-10-20T02:56:28;8.60;99.90
59041;DHT22;44825;53.200;6.448;2022-10-20T02:58:55;8.70;99.90
59041;DHT22;44825;53.200;6.448;2022-10-20T03:01:21;8.70;99.90
59041;DHT22;44825;53.200;6.448;2022-10-20T03:03:49;8.70;99.90
59041;DHT22;44825;53.200;6.448;2022-10-20T03:06:15;8.70;99.90
59041;DHT22;44825;53.200;6.448;2022-10-20T03:08:43;8.70;99.90
59041;DHT22;44825;53.200;6.448;2022-10-20T03:11:10;8.70;99.90
59041;DHT22;44825;53.200;6.448;2022-10-20T03:13:37;8.70;99.90
59041;DHT22;44825;53.200;6.448;2022-10-20T03:16:03;8.70;99.90
59041;DHT22;44825;53.200;6.448;2022-10-20T03:18:30;8.80;99.90
59041;DHT22;44825;53.200;6.448;2022-10-20T03:20:57;9.00;99.90
59041;DHT22;44825;53.200;6.448;2022-10-20T03:23:23;8.70;99.90
59041;DHT22;44825;53.200;6.448;2022-10-20T03:25:51;8.70;99.90
59041;DHT22;44825;53.200;6.448;2022-10-20T03:28:18;8.70;99.90
59041;DHT22;44825;53.200;6.448;2022-10-20T03:30:44;8.60;99.90
59041;DHT22;44825;53.200;6.448;2022-10-20T03:33:11;8.60;99.90
59041;DHT22;44825;53.200;6.448;2022-10-20T03:35:38;8.60;99.90
59041;DHT22;44825;53.200;6.448;2022-10-20T03:38:04;8.60;99.90
59041;DHT22;44825;53.200;6.448;2022-10-20T03:40:31;8.60;99.90
59041;DHT22;44825;53.200;6.448;2022-10-20T03:42:59;8.60;99.90
59041;DHT22;44825;53.200;6.448;2022-10-20T03:45:26;8.60;99.90
59041;DHT22;44825;53.200;6.448;2022-10-20T03:47:52;8.60;99.90
59041;DHT22;44825;53.200;6.448;2022-10-20T03:50:19;8.60;99.90
59041;DHT22;44825;53.200;6.448;2022-10-20T03:52:46;8.60;99.90
59041;DHT22;44825;53.200;6.448;2022-10-20T03:55:13;8.60;99.90
59041;DHT22;44825;53.200;6.448;2022-10-20T03:57:39;8.60;99.90
59041;DHT22;44825;53.200;6.448;2022-10-20T04:00:08;8.60;99.90
59041;DHT22;44825;53.200;6.448;2022-10-20T04:02:36;8.60;99.90
59041;DHT22;44825;53.200;6.448;2022-10-20T04:05:03;8.60;99.90
59041;DHT22;44825;53.200;6.448;2022-10-20T04:07:30;8.60;99.90
59041;DHT22;44825;53.200;6.448;2022-10-20T04:09:57;8.50;99.90
59041;DHT22;44825;53.200;6.448;2022-10-20T04:12:26;8.50;99.90
59041;DHT22;44825;53.200;6.448;2022-10-20T04:14:53;8.50;99.90
59041;DHT22;44825;53.200;6.448;2022-10-20T04:17:26;8.50;99.90
59041;DHT22;44825;53.200;6.448;2022-10-20T04:19:53;8.50;99.90
59041;DHT22;44825;53.200;6.448;2022-10-20T04:22:20;8.50;99.90
59041;DHT22;44825;53.200;6.448;2022-10-20T04:24:46;8.60;99.90
59041;DHT22;44825;53.200;6.448;2022-10-20T04:27:13;8.60;99.90
59041;DHT22;44825;53.200;6.448;2022-10-20T04:29:40;8.60;99.90
59041;DHT22;44825;53.200;6.448;2022-10-20T04:32:07;8.60;99.90
59041;DHT22;44825;53.200;6.448;2022-10-20T04:34:35;8.60;99.90
59041;DHT22;44825;53.200;6.448;2022-10-20T04:37:01;8.60;99.90
59041;DHT22;44825;53.200;6.448;2022-10-20T04:39:28;8.60;99.90
59041;DHT22;44825;53.200;6.448;2022-10-20T04:41:55;8.60;99.90
59041;DHT22;44825;53.200;6.448;2022-10-20T04:44:21;8.60;99.90
59041;DHT22;44825;53.200;6.448;2022-10-20T04:46:48;8.60;99.90
59041;DHT22;44825;53.200;6.448;2022-10-20T04:49:15;8.60;99.90
59041;DHT22;44825;53.200;6.448;2022-10-20T04:51:43;8.60;99.90
59041;DHT22;44825;53.200;6.448;2022-10-20T04:54:10;8.60;99.90
59041;DHT22;44825;53.200;6.448;2022-10-20T04:56:36;8.60;99.90
59041;DHT22;44825;53.200;6.448;2022-10-20T04:59:03;8.60;99.90
59041;DHT22;44825;53.200;6.448;2022-10-20T05:01:30;8.60;99.90
59041;DHT22;44825;53.200;6.448;2022-10-20T05:03:57;8.60;99.90
59041;DHT22;44825;53.200;6.448;2022-10-20T05:06:24;8.50;99.90
59041;DHT22;44825;53.200;6.448;2022-10-20T05:08:54;8.60;99.90
59041;DHT22;44825;53.200;6.448;2022-10-20T05:11:21;8.60;99.90
59041;DHT22;44825;53.200;6.448;2022-10-20T05:13:48;8.60;99.90
59041;DHT22;44825;53.200;6.448;2022-10-20T05:16:15;8.60;99.90
59041;DHT22;44825;53.200;6.448;2022-10-20T05:18:43;8.60;99.90
59041;DHT22;44825;53.200;6.448;2022-10-20T05:21:10;8.60;99.90
59041;DHT22;44825;53.200;6.448;2022-10-20T05:23:37;8.60;99.90
59041;DHT22;44825;53.200;6.448;2022-10-20T05:26:06;8.60;99.90
59041;DHT22;44825;53.200;6.448;2022-10-20T05:28:33;8.50;99.90
59041;DHT22;44825;53.200;6.448;2022-10-20T05:31:00;8.50;99.90
59041;DHT22;44825;53.200;6.448;2022-10-20T05:33:27;8.50;99.90
59041;DHT22;44825;53.200;6.448;2022-10-20T05:35:54;8.50;99.90
59041;DHT22;44825;53.200;6.448;2022-10-20T05:38:21;8.50;99.90
59041;DHT22;44825;53.200;6.448;2022-10-20T05:40:48;8.50;99.90
59041;DHT22;44825;53.200;6.448;2022-10-20T05:43:16;8.50;99.90
59041;DHT22;44825;53.200;6.448;2022-10-20T05:45:42;8.40;99.90
59041;DHT22;44825;53.200;6.448;2022-10-20T05:48:09;8.40;99.90
59041;DHT22;44825;53.200;6.448;2022-10-20T05:50:36;8.30;99.90
59041;DHT22;44825;53.200;6.448;2022-10-20T05:53:02;8.30;99.90
59041;DHT22;44825;53.200;6.448;2022-10-20T05:55:29;8.30;99.90
59041;DHT22;44825;53.200;6.448;2022-10-20T05:57:56;8.20;99.90
59041;DHT22;44825;53.200;6.448;2022-10-20T06:00:24;8.20;99.90
59041;DHT22;44825;53.200;6.448;2022-10-20T06:02:55;8.20;99.90
59041;DHT22;44825;53.200;6.448;2022-10-20T06:05:22;8.20;99.90
59041;DHT22;44825;53.200;6.448;2022-10-20T06:07:48;8.20;99.90
59041;DHT22;44825;53.200;6.448;2022-10-20T06:10:15;8.20;99.90
59041;DHT22;44825;53.200;6.448;2022-10-20T06:12:42;8.20;99.90
59041;DHT22;44825;53.200;6.448;2022-10-20T06:15:08;8.30;99.90
59041;DHT22;44825;53.200;6.448;2022-10-20T06:17:36;8.30;99.90
59041;DHT22;44825;53.200;6.448;2022-10-20T06:20:03;8.30;99.90
59041;DHT22;44825;53.200;6.448;2022-10-20T06:22:30;8.20;99.90
59041;DHT22;44825;53.200;6.448;2022-10-20T06:24:57;8.20;99.90
59041;DHT22;44825;53.200;6.448;2022-10-20T06:27:23;8.20;99.90
59041;DHT22;44825;53.200;6.448;2022-10-20T06:29:50;8.20;99.90
59041;DHT22;44825;53.200;6.448;2022-10-20T06:32:16;8.20;99.90
59041;DHT22;44825;53.200;6.448;2022-10-20T06:34:44;8.20;99.90
59041;DHT22;44825;53.200;6.448;2022-10-20T06:37:11;8.30;99.90
59041;DHT22;44825;53.200;6.448;2022-10-20T06:39:38;8.30;99.90
59041;DHT22;44825;53.200;6.448;2022-10-20T06:42:04;8.30;99.90
59041;DHT22;44825;53.200;6.448;2022-10-20T06:44:31;8.30;99.90
59041;DHT22;44825;53.200;6.448;2022-10-20T06:46:58;8.40;99.90
59041;DHT22;44825;53.200;6.448;2022-10-20T06:49:24;8.40;99.90
59041;DHT22;44825;53.200;6.448;2022-10-20T06:51:52;8.40;99.90
59041;DHT22;44825;53.200;6.448;2022-10-20T06:54:19;8.40;99.90
59041;DHT22;44825;53.200;6.448;2022-10-20T06:56:45;8.50;99.90
59041;DHT22;44825;53.200;6.448;2022-10-20T06:59:12;8.50;99.90
59041;DHT22;44825;53.200;6.448;2022-10-20T07:01:39;8.50;99.90
59041;DHT22;44825;53.200;6.448;2022-10-20T07:04:08;8.50;99.90
59041;DHT22;44825;53.200;6.448;2022-10-20T07:06:36;8.50;99.90
59041;DHT22;44825;53.200;6.448;2022-10-20T07:09:05;8.50;99.90
59041;DHT22;44825;53.200;6.448;2022-10-20T07:11:32;8.60;99.90
59041;DHT22;44825;53.200;6.448;2022-10-20T07:13:59;8.60;99.90
59041;DHT22;44825;53.200;6.448;2022-10-20T07:16:27;8.60;99.90
59041;DHT22;44825;53.200;6.448;2022-10-20T07:18:54;8.60;99.90
59041;DHT22;44825;53.200;6.448;2022-10-20T07:21:22;8.70;99.90
59041;DHT22;44825;53.200;6.448;2022-10-20T07:23:49;8.70;99.90
59041;DHT22;44825;53.200;6.448;2022-10-20T07:26:18;8.70;99.90
59041;DHT22;44825;53.200;6.448;2022-10-20T07:28:46;8.70;99.90
59041;DHT22;44825;53.200;6.448;2022-10-20T07:31:14;8.70;99.90
59041;DHT22;44825;53.200;6.448;2022-10-20T07:33:41;8.70;99.90
59041;DHT22;44825;53.200;6.448;2022-10-20T07:36:11;8.80;99.90
59041;DHT22;44825;53.200;6.448;2022-10-20T07:38:38;8.80;99.90
59041;DHT22;44825;53.200;6.448;2022-10-20T07:41:05;8.80;99.90
59041;DHT22;44825;53.200;6.448;2022-10-20T07:43:33;8.80;99.90
59041;DHT22;44825;53.200;6.448;2022-10-20T07:45:59;8.80;99.90
59041;DHT22;44825;53.200;6.448;2022-10-20T07:48:26;8.90;99.90
59041;DHT22;44825;53.200;6.448;2022-10-20T07:50:53;8.90;99.90
59041;DHT22;44825;53.200;6.448;2022-10-20T07:53:19;8.90;99.90
59041;DHT22;44825;53.200;6.448;2022-10-20T07:55:46;8.90;99.90
59041;DHT22;44825;53.200;6.448;2022-10-20T07:58:12;8.90;99.90
59041;DHT22;44825;53.200;6.448;2022-10-20T08:00:40;8.90;99.90
59041;DHT22;44825;53.200;6.448;2022-10-20T08:03:07;8.90;99.90
59041;DHT22;44825;53.200;6.448;2022-10-20T08:05:34;8.90;99.90
59041;DHT22;44825;53.200;6.448;2022-10-20T08:08:01;9.00;99.90
59041;DHT22;44825;53.200;6.448;2022-10-20T08:10:27;9.00;99.90
59041;DHT22;44825;53.200;6.448;2022-10-20T08:12:54;9.00;99.90
59041;DHT22;44825;53.200;6.448;2022-10-20T08:15:21;9.10;99.90
59041;DHT22;44825;53.200;6.448;2022-10-20T08:17:49;9.10;99.90
59041;DHT22;44825;53.200;6.448;2022-10-20T08:20:15;9.10;99.90
59041;DHT22;44825;53.200;6.448;2022-10-20T08:22:42;9.20;99.90
59041;DHT22;44825;53.200;6.448;2022-10-20T08:25:09;9.20;99.90
59041;DHT22;44825;53.200;6.448;2022-10-20T08:27:38;9.20;99.90
59041;DHT22;44825;53.200;6.448;2022-10-20T08:30:05;9.30;99.90
59041;DHT22;44825;53.200;6.448;2022-10-20T08:32:32;9.30;99.90
59041;DHT22;44825;53.200;6.448;2022-10-20T08:35:00;9.40;99.90
59041;DHT22;44825;53.200;6.448;2022-10-20T08:37:28;9.40;99.90
59041;DHT22;44825;53.200;6.448;2022-10-20T08:39:55;9.50;99.90
59041;DHT22;44825;53.200;6.448;2022-10-20T08:42:21;9.50;99.90
59041;DHT22;44825;53.200;6.448;2022-10-20T08:44:48;9.50;99.90
59041;DHT22;44825;53.200;6.448;2022-10-20T08:47:19;9.50;99.90
59041;DHT22;44825;53.200;6.448;2022-10-20T08:49:48;9.60;99.90
59041;DHT22;44825;53.200;6.448;2022-10-20T08:52:17;9.60;99.90
59041;DHT22;44825;53.200;6.448;2022-10-20T08:54:44;9.70;99.90
59041;DHT22;44825;53.200;6.448;2022-10-20T08:57:14;9.70;99.90
59041;DHT22;44825;53.200;6.448;2022-10-20T08:59:44;9.70;99.90
59041;DHT22;44825;53.200;6.448;2022-10-20T09:02:12;9.80;99.90
59041;DHT22;44825;53.200;6.448;2022-10-20T09:04:40;9.90;99.90
59041;DHT22;44825;53.200;6.448;2022-10-20T09:07:09;9.90;99.90
59041;DHT22;44825;53.200;6.448;2022-10-20T09:09:42;10.00;99.90
59041;DHT22;44825;53.200;6.448;2022-10-20T09:12:09;10.00;99.90
59041;DHT22;44825;53.200;6.448;2022-10-20T09:14:37;10.10;99.90
59041;DHT22;44825;53.200;6.448;2022-10-20T09:17:05;10.20;99.90
59041;DHT22;44825;53.200;6.448;2022-10-20T09:19:31;10.20;99.90
59041;DHT22;44825;53.200;6.448;2022-10-20T09:22:03;10.30;99.90
59041;DHT22;44825;53.200;6.448;2022-10-20T09:24:30;10.40;99.90
59041;DHT22;44825;53.200;6.448;2022-10-20T09:27:14;10.40;99.90
59041;DHT22;44825;53.200;6.448;2022-10-20T09:29:42;10.40;99.90
59041;DHT22;44825;53.200;6.448;2022-10-20T09:32:15;10.50;99.90
59041;DHT22;44825;53.200;6.448;2022-10-20T09:34:42;10.60;99.90
59041;DHT22;44825;53.200;6.448;2022-10-20T09:37:09;10.60;99.90
59041;DHT22;44825;53.200;6.448;2022-10-20T09:39:39;10.60;99.90
59041;DHT22;44825;53.200;6.448;2022-10-20T09:42:12;10.60;99.90
59041;DHT22;44825;53.200;6.448;2022-10-20T09:44:44;10.70;99.90
59041;DHT22;44825;53.200;6.448;2022-10-20T09:47:12;10.60;99.90
59041;DHT22;44825;53.200;6.448;2022-10-20T09:49:40;10.60;99.90
59041;DHT22;44825;53.200;6.448;2022-10-20T09:52:13;10.70;99.90
59041;DHT22;44825;53.200;6.448;2022-10-20T09:54:44;10.80;99.90
59041;DHT22;44825;53.200;6.448;2022-10-20T09:57:15;10.70;99.90
59041;DHT22;44825;53.200;6.448;2022-10-20T09:59:43;10.80;99.90
59041;DHT22;44825;53.200;6.448;2022-10-20T10:04:52;10.80;99.90
59041;DHT22;44825;53.200;6.448;2022-10-20T10:07:27;10.90;99.90
59041;DHT22;44825;53.200;6.448;2022-10-20T10:09:56;10.90;99.90
59041;DHT22;44825;53.200;6.448;2022-10-20T10:12:24;10.90;99.90
59041;DHT22;44825;53.200;6.448;2022-10-20T10:14:52;11.00;99.90
59041;DHT22;44825;53.200;6.448;2022-10-20T10:17:27;11.00;99.90
59041;DHT22;44825;53.200;6.448;2022-10-20T10:19:54;11.10;99.90
59041;DHT22;44825;53.200;6.448;2022-10-20T10:22:20;11.10;99.90
59041;DHT22;44825;53.200;6.448;2022-10-20T10:24:47;11.20;99.90
59041;DHT22;44825;53.200;6.448;2022-10-20T10:27:18;11.20;99.90
59041;DHT22;44825;53.200;6.448;2022-10-20T10:29:46;11.40;99.90
59041;DHT22;44825;53.200;6.448;2022-10-20T10:32:14;11.40;99.90
59041;DHT22;44825;53.200;6.448;2022-10-20T10:34:50;11.50;99.90
59041;DHT22;44825;53.200;6.448;2022-10-20T10:37:21;11.50;99.90
59041;DHT22;44825;53.200;6.448;2022-10-20T10:39:47;11.60;99.90
59041;DHT22;44825;53.200;6.448;2022-10-20T10:42:18;11.70;99.90
59041;DHT22;44825;53.200;6.448;2022-10-20T10:44:50;11.90;99.90
59041;DHT22;44825;53.200;6.448;2022-10-20T10:47:27;11.90;99.90
59041;DHT22;44825;53.200;6.448;2022-10-20T10:49:56;12.00;99.90
59041;DHT22;44825;53.200;6.448;2022-10-20T10:52:29;12.10;99.90
59041;DHT22;44825;53.200;6.448;2022-10-20T10:55:02;12.10;99.90
59041;DHT22;44825;53.200;6.448;2022-10-20T10:57:31;12.10;99.90
59041;DHT22;44825;53.200;6.448;2022-10-20T11:00:06;12.10;99.90
59041;DHT22;44825;53.200;6.448;2022-10-20T11:05:26;12.20;99.90
59041;DHT22;44825;53.200;6.448;2022-10-20T11:07:59;12.30;99.90
59041;DHT22;44825;53.200;6.448;2022-10-20T11:10:30;12.30;99.90
59041;DHT22;44825;53.200;6.448;2022-10-20T11:13:07;12.40;99.90
59041;DHT22;44825;53.200;6.448;2022-10-20T11:15:43;12.40;99.90
59041;DHT22;44825;53.200;6.448;2022-10-20T11:18:13;12.40;99.90
59041;DHT22;44825;53.200;6.448;2022-10-20T11:20:47;12.40;99.90
59041;DHT22;44825;53.200;6.448;2022-10-20T11:26:00;12.40;99.90
59041;DHT22;44825;53.200;6.448;2022-10-20T11:28:29;12.50;99.90
59041;DHT22;44825;53.200;6.448;2022-10-20T11:30:58;12.60;99.90
59041;DHT22;44825;53.200;6.448;2022-10-20T11:33:25;12.50;99.90
59041;DHT22;44825;53.200;6.448;2022-10-20T11:35:55;12.50;99.90
59041;DHT22;44825;53.200;6.448;2022-10-20T11:38:24;12.40;99.90
59041;DHT22;44825;53.200;6.448;2022-10-20T11:40:57;12.50;99.90
59041;DHT22;44825;53.200;6.448;2022-10-20T11:43:27;12.50;99.90
59041;DHT22;44825;53.200;6.448;2022-10-20T11:45:55;12.40;99.90
59041;DHT22;44825;53.200;6.448;2022-10-20T11:48:25;12.50;99.90
59041;DHT22;44825;53.200;6.448;2022-10-20T11:50:58;12.50;99.90
59041;DHT22;44825;53.200;6.448;2022-10-20T11:53:34;12.50;99.90
59041;DHT22;44825;53.200;6.448;2022-10-20T11:56:07;12.50;99.90
59041;DHT22;44825;53.200;6.448;2022-10-20T11:58:46;12.60;99.90
59041;DHT22;44825;53.200;6.448;2022-10-20T12:01:23;12.60;99.90
59041;DHT22;44825;53.200;6.448;2022-10-20T12:06:57;12.60;99.90
59041;DHT22;44825;53.200;6.448;2022-10-20T12:09:45;12.60;99.90
59041;DHT22;44825;53.200;6.448;2022-10-20T12:12:15;12.60;99.90
59041;DHT22;44825;53.200;6.448;2022-10-20T12:14:45;12.60;99.90
59041;DHT22;44825;53.200;6.448;2022-10-20T12:17:18;12.60;99.90
59041;DHT22;44825;53.200;6.448;2022-10-20T12:19:48;12.60;99.90
59041;DHT22;44825;53.200;6.448;2022-10-20T12:25:15;12.70;99.90
59041;DHT22;44825;53.200;6.448;2022-10-20T12:27:43;12.70;99.90
59041;DHT22;44825;53.200;6.448;2022-10-20T12:38:18;12.70;99.90
59041;DHT22;44825;53.200;6.448;2022-10-20T12:40:50;12.70;99.90
59041;DHT22;44825;53.200;6.448;2022-10-20T12:43:29;12.70;99.90
59041;DHT22;44825;53.200;6.448;2022-10-20T12:45:57;12.70;99.90
59041;DHT22;44825;53.200;6.448;2022-10-20T12:48:25;12.70;99.90
59041;DHT22;44825;53.200;6.448;2022-10-20T12:50:51;12.70;99.90
59041;DHT22;44825;53.200;6.448;2022-10-20T12:53:19;12.60;99.90
59041;DHT22;44825;53.200;6.448;2022-10-20T12:55:52;12.60;99.90
59041;DHT22;44825;53.200;6.448;2022-10-20T12:58:25;12.60;99.90
59041;DHT22;44825;53.200;6.448;2022-10-20T13:01:00;12.60;99.90
59041;DHT22;44825;53.200;6.448;2022-10-20T13:03:37;12.50;99.90
59041;DHT22;44825;53.200;6.448;2022-10-20T13:11:39;12.40;99.90
59041;DHT22;44825;53.200;6.448;2022-10-20T13:14:12;12.40;99.90
59041;DHT22;44825;53.200;6.448;2022-10-20T13:16:41;12.40;99.90
59041;DHT22;44825;53.200;6.448;2022-10-20T13:19:11;12.40;99.90
59041;DHT22;44825;53.200;6.448;2022-10-20T13:21:41;12.30;99.90
59041;DHT22;44825;53.200;6.448;2022-10-20T13:24:10;12.30;99.90
59041;DHT22;44825;53.200;6.448;2022-10-20T13:26:45;12.30;99.90
59041;DHT22;44825;53.200;6.448;2022-10-20T13:29:12;12.40;99.90
59041;DHT22;44825;53.200;6.448;2022-10-20T13:31:44;12.30;99.90
59041;DHT22;44825;53.200;6.448;2022-10-20T13:34:13;12.30;99.90
59041;DHT22;44825;53.200;6.448;2022-10-20T13:39:32;12.30;99.90
59041;DHT22;44825;53.200;6.448;2022-10-20T13:42:04;12.30;99.90
59041;DHT22;44825;53.200;6.448;2022-10-20T13:44:33;12.30;99.90
59041;DHT22;44825;53.200;6.448;2022-10-20T13:47:05;12.30;99.90
59041;DHT22;44825;53.200;6.448;2022-10-20T13:49:41;12.30;99.90
59041;DHT22;44825;53.200;6.448;2022-10-20T13:52:10;12.30;99.90
59041;DHT22;44825;53.200;6.448;2022-10-20T13:54:39;12.30;99.90
59041;DHT22;44825;53.200;6.448;2022-10-20T13:57:14;12.20;99.90
59041;DHT22;44825;53.200;6.448;2022-10-20T13:59:53;12.20;99.90
59041;DHT22;44825;53.200;6.448;2022-10-20T14:02:22;12.20;99.90
59041;DHT22;44825;53.200;6.448;2022-10-20T14:04:50;12.20;99.90
59041;DHT22;44825;53.200;6.448;2022-10-20T14:07:33;12.20;99.90
59041;DHT22;44825;53.200;6.448;2022-10-20T14:10:00;12.20;99.90
59041;DHT22;44825;53.200;6.448;2022-10-20T14:12:29;12.20;99.90
59041;DHT22;44825;53.200;6.448;2022-10-20T14:14:56;12.20;99.90
59041;DHT22;44825;53.200;6.448;2022-10-20T14:17:24;12.20;99.90
59041;DHT22;44825;53.200;6.448;2022-10-20T14:19:57;12.20;99.90
59041;DHT22;44825;53.200;6.448;2022-10-20T14:22:33;12.20;99.90
59041;DHT22;44825;53.200;6.448;2022-10-20T14:25:00;12.20;99.90
59041;DHT22;44825;53.200;6.448;2022-10-20T14:27:31;12.20;99.90
59041;DHT22;44825;53.200;6.448;2022-10-20T14:29:58;12.20;99.90
59041;DHT22;44825;53.200;6.448;2022-10-20T14:32:26;12.10;99.90
59041;DHT22;44825;53.200;6.448;2022-10-20T14:34:54;12.10;99.90
59041;DHT22;44825;53.200;6.448;2022-10-20T14:37:23;12.10;99.90
59041;DHT22;44825;53.200;6.448;2022-10-20T14:39:51;12.10;99.90
59041;DHT22;44825;53.200;6.448;2022-10-20T14:42:19;12.10;99.90
59041;DHT22;44825;53.200;6.448;2022-10-20T14:44:49;12.10;99.90
59041;DHT22;44825;53.200;6.448;2022-10-20T14:47:16;12.00;99.90
59041;DHT22;44825;53.200;6.448;2022-10-20T14:49:45;12.00;99.90
59041;DHT22;44825;53.200;6.448;2022-10-20T14:52:19;12.10;99.90
59041;DHT22;44825;53.200;6.448;2022-10-20T14:54:47;12.10;99.90
59041;DHT22;44825;53.200;6.448;2022-10-20T14:57:26;12.10;99.90
59041;DHT22;44825;53.200;6.448;2022-10-20T14:59:56;12.10;99.90
59041;DHT22;44825;53.200;6.448;2022-10-20T15:02:28;12.10;99.90
59041;DHT22;44825;53.200;6.448;2022-10-20T15:05:18;12.10;99.90
59041;DHT22;44825;53.200;6.448;2022-10-20T15:07:42;12.00;99.90
59041;DHT22;44825;53.200;6.448;2022-10-20T15:10:12;12.10;99.90
59041;DHT22;44825;53.200;6.448;2022-10-20T15:12:40;12.10;99.90
59041;DHT22;44825;53.200;6.448;2022-10-20T15:15:16;12.10;99.90
59041;DHT22;44825;53.200;6.448;2022-10-20T15:17:45;12.10;99.90
59041;DHT22;44825;53.200;6.448;2022-10-20T15:23:03;12.10;99.90
59041;DHT22;44825;53.200;6.448;2022-10-20T15:25:31;12.10;99.90
59041;DHT22;44825;53.200;6.448;2022-10-20T15:28:01;12.10;99.90
59041;DHT22;44825;53.200;6.448;2022-10-20T15:30:29;12.10;99.90
59041;DHT22;44825;53.200;6.448;2022-10-20T15:32:56;12.10;99.90
59041;DHT22;44825;53.200;6.448;2022-10-20T15:35:23;12.10;99.90
59041;DHT22;44825;53.200;6.448;2022-10-20T15:37:50;12.20;99.90
59041;DHT22;44825;53.200;6.448;2022-10-20T15:40:17;12.20;99.90
59041;DHT22;44825;53.200;6.448;2022-10-20T15:42:44;12.20;99.90
59041;DHT22;44825;53.200;6.448;2022-10-20T15:45:12;12.20;99.90
59041;DHT22;44825;53.200;6.448;2022-10-20T15:47:41;12.20;99.90
59041;DHT22;44825;53.200;6.448;2022-10-20T15:50:08;12.20;99.90
59041;DHT22;44825;53.200;6.448;2022-10-20T15:52:35;12.20;99.90
59041;DHT22;44825;53.200;6.448;2022-10-20T15:55:07;12.20;99.90
59041;DHT22;44825;53.200;6.448;2022-10-20T15:57:36;12.20;99.90
59041;DHT22;44825;53.200;6.448;2022-10-20T16:00:03;12.20;99.90
59041;DHT22;44825;53.200;6.448;2022-10-20T16:02:30;12.20;99.90
59041;DHT22;44825;53.200;6.448;2022-10-20T16:04:58;12.20;99.90
59041;DHT22;44825;53.200;6.448;2022-10-20T16:07:24;12.30;99.90
59041;DHT22;44825;53.200;6.448;2022-10-20T16:09:51;12.30;99.90
59041;DHT22;44825;53.200;6.448;2022-10-20T16:12:18;12.30;99.90
59041;DHT22;44825;53.200;6.448;2022-10-20T16:14:44;12.30;99.90
59041;DHT22;44825;53.200;6.448;2022-10-20T16:17:11;12.30;99.90
59041;DHT22;44825;53.200;6.448;2022-10-20T16:19:38;12.30;99.90
59041;DHT22;44825;53.200;6.448;2022-10-20T16:22:06;12.40;99.90
59041;DHT22;44825;53.200;6.448;2022-10-20T16:24:32;12.40;99.90
59041;DHT22;44825;53.200;6.448;2022-10-20T16:26:59;12.40;99.90
59041;DHT22;44825;53.200;6.448;2022-10-20T16:29:28;12.30;99.90
59041;DHT22;44825;53.200;6.448;2022-10-20T16:31:54;12.40;99.90
59041;DHT22;44825;53.200;6.448;2022-10-20T16:34:22;12.40;99.90
59041;DHT22;44825;53.200;6.448;2022-10-20T16:36:49;12.40;99.90
59041;DHT22;44825;53.200;6.448;2022-10-20T16:39:17;12.40;99.90